createdAt,value
2023-05-21T00:00:02.470Z,99848.22
2023-05-21T00:05:15.600Z,99841.31
2023-05-21T00:10:17.471Z,99845.72
2023-05-21T00:15:19.328Z,99836.34
2023-05-21T00:20:21.997Z,99836.94
2023-05-21T00:25:23.987Z,99829.63
2023-05-21T00:30:25.853Z,99828.44
2023-05-21T00:35:27.794Z,99819.69
2023-05-21T00:40:31.221Z,99816.09
2023-05-21T00:45:33.392Z,99810.53
2023-05-21T00:50:36.304Z,99809.50
2023-05-21T00:55:38.804Z,99800.91
2023-05-21T01:00:40.866Z,99795.88
2023-05-21T01:05:45.268Z,99789.84
2023-05-21T01:10:48.235Z,99791.03
2023-05-21T01:15:51.209Z,99788.69
2023-05-21T01:20:53.793Z,99791.28
2023-05-21T01:25:55.706Z,99787.00
2023-05-21T01:31:00.867Z,99789.91
2023-05-21T01:36:24.508Z,99790.09
2023-05-21T01:41:29.524Z,99787.56
2023-05-21T01:46:36.530Z,99788.47
2023-05-21T01:51:39.257Z,99780.00
2023-05-21T01:56:41.556Z,99779.53
2023-05-21T02:01:43.723Z,99772.84
2023-05-21T02:06:45.673Z,99772.75
2023-05-21T02:11:47.601Z,99775.31
2023-05-21T02:16:49.912Z,99772.50
2023-05-21T02:21:51.770Z,99765.63
2023-05-21T02:26:53.623Z,99762.78
2023-05-21T02:31:55.718Z,99759.94
2023-05-21T02:36:58.936Z,99753.38
2023-05-21T02:42:00.855Z,99749.91
2023-05-21T02:47:02.753Z,99748.47
2023-05-21T02:52:05.491Z,99747.41
2023-05-21T02:57:07.497Z,99754.78
2023-05-21T03:02:09.438Z,99757.28
2023-05-21T03:07:14.083Z,99748.66
2023-05-21T03:12:16.005Z,99750.84
2023-05-21T03:17:18.207Z,99756.59
2023-05-21T03:22:20.169Z,99738.59
2023-05-21T03:27:22.136Z,99741.22
2023-05-21T03:32:24.132Z,99741.09
2023-05-21T03:37:27.045Z,99751.38
2023-05-21T03:42:29.147Z,99739.91
2023-05-21T03:47:32.120Z,99742.88
2023-05-21T03:52:36.393Z,99741.94
2023-05-21T03:57:38.456Z,99739.19
2023-05-21T04:02:41.107Z,99745.63
2023-05-21T04:07:43.128Z,99738.47
2023-05-21T04:12:45.068Z,99746.94
2023-05-21T04:17:47.080Z,99745.84
2023-05-21T04:22:49.190Z,99749.63
2023-05-21T04:27:51.164Z,99747.19
2023-05-21T04:32:54.975Z,99760.16
2023-05-21T04:37:57.148Z,99755.88
2023-05-21T04:43:00.981Z,99759.31
2023-05-21T04:48:03.812Z,99764.16
2023-05-21T04:53:05.715Z,99763.72
2023-05-21T04:58:07.761Z,99767.25
2023-05-21T05:03:11.503Z,99763.31
2023-05-21T05:08:15.735Z,99764.41
2023-05-21T05:13:18.284Z,99761.72
2023-05-21T05:18:20.536Z,99766.97
2023-05-21T05:23:22.407Z,99760.91
2023-05-21T05:28:25.933Z,99761.47
2023-05-21T05:33:27.892Z,99752.03
2023-05-21T05:38:30.338Z,99758.84
2023-05-21T05:43:32.428Z,99761.03
2023-05-21T05:48:35.582Z,99750.75
2023-05-21T05:53:37.993Z,99751.31
2023-05-21T05:58:40.074Z,99752.97
2023-05-21T06:03:47.552Z,99755.34
2023-05-21T06:08:51.491Z,99752.16
2023-05-21T06:13:54.482Z,99751.25
2023-05-21T06:18:57.792Z,99744.94
2023-05-21T06:24:00.108Z,99750.03
2023-05-21T06:29:04.056Z,99746.50
2023-05-21T06:34:06.789Z,99746.41
2023-05-21T06:39:08.797Z,99741.50
2023-05-21T06:44:11.144Z,99737.53
2023-05-21T06:49:14.599Z,99734.84
2023-05-21T06:54:17.879Z,99734.09
2023-05-21T06:59:19.797Z,99741.28
2023-05-21T07:04:21.728Z,99739.22
2023-05-21T07:09:24.737Z,99748.84
2023-05-21T07:14:27.038Z,99737.41
2023-05-21T07:19:29.226Z,99746.94
2023-05-21T07:24:31.319Z,99744.16
2023-05-21T07:29:34.320Z,99741.59
2023-05-21T07:34:36.295Z,99736.75
2023-05-21T07:39:39.725Z,99739.63
2023-05-21T07:44:42.103Z,99736.06
2023-05-21T07:49:59.454Z,99733.13
2023-05-21T07:55:02.219Z,99726.78
2023-05-21T08:00:09.723Z,99720.41
2023-05-21T08:05:16.945Z,99726.53
2023-05-21T08:10:19.789Z,99713.16
2023-05-21T08:15:24.248Z,99710.63
2023-05-21T08:20:26.798Z,99714.78
2023-05-21T08:25:29.179Z,99701.59
2023-05-21T08:30:32.776Z,99706.28
2023-05-21T08:35:35.229Z,99703.44
2023-05-21T08:40:51.981Z,99697.88
2023-05-21T08:45:56.015Z,99694.22
2023-05-21T08:51:01.976Z,99700.00
2023-05-21T08:56:09.663Z,99675.03
2023-05-21T09:01:19.624Z,99679.88
2023-05-21T09:06:26.557Z,99678.09
2023-05-21T09:11:29.806Z,99662.50
2023-05-21T09:16:33.695Z,99656.38
2023-05-21T09:21:36.240Z,99657.69
2023-05-21T09:26:48.427Z,99665.69
2023-05-21T09:31:50.538Z,99662.13
2023-05-21T09:36:57.827Z,99662.34
2023-05-21T09:41:59.853Z,99654.72
2023-05-21T09:47:02.350Z,99646.50
2023-05-21T09:52:04.484Z,99647.88
2023-05-21T09:57:06.628Z,99636.75
2023-05-21T10:02:22.608Z,99636.59
2023-05-21T10:07:27.327Z,99629.88
2023-05-21T10:12:31.014Z,99635.53
2023-05-21T10:17:33.107Z,99623.97
2023-05-21T10:22:36.474Z,99622.28
2023-05-21T10:27:38.717Z,99616.78
2023-05-21T10:32:42.362Z,99611.63
2023-05-21T10:37:46.176Z,99597.81
2023-05-21T10:43:05.927Z,99599.66
2023-05-21T10:48:16.751Z,99606.94
2023-05-21T10:53:43.818Z,99599.97
2023-05-21T10:59:18.536Z,99590.81
2023-05-21T11:04:26.886Z,99600.38
2023-05-21T11:09:28.755Z,99597.06
2023-05-21T11:14:43.094Z,99592.91
2023-05-21T11:19:48.069Z,99594.69
2023-05-21T11:24:51.510Z,99588.34
2023-05-21T11:29:55.873Z,99582.91
2023-05-21T11:35:02.396Z,99584.63
2023-05-21T11:40:18.110Z,99578.00
2023-05-21T11:45:31.433Z,99574.75
2023-05-21T11:50:34.958Z,99572.34
2023-05-21T11:55:43.696Z,99579.88
2023-05-21T12:00:45.819Z,99578.94
2023-05-21T12:05:49.043Z,99578.56
2023-05-21T12:10:59.131Z,99573.59
2023-05-21T12:16:03.968Z,99566.72
2023-05-21T12:21:07.148Z,99579.31
2023-05-21T12:26:09.409Z,99569.19
2023-05-21T12:31:17.930Z,99575.81
2023-05-21T12:36:26.947Z,99579.31
2023-05-21T12:41:29.927Z,99563.13
2023-05-21T12:46:31.962Z,99565.03
2023-05-21T12:51:40.250Z,99564.66
2023-05-21T12:56:45.813Z,99555.38
2023-05-21T13:01:48.588Z,99562.72
2023-05-21T13:06:50.479Z,99544.63
2023-05-21T13:11:52.335Z,99546.81
2023-05-21T13:16:54.266Z,99549.50
2023-05-21T13:21:56.717Z,99536.00
2023-05-21T13:26:58.674Z,99531.38
2023-05-21T13:32:00.670Z,99523.72
2023-05-21T13:37:02.553Z,99522.63
2023-05-21T13:42:05.925Z,99527.06
2023-05-21T13:47:09.084Z,99520.97
2023-05-21T13:52:12.117Z,99523.06
2023-05-21T13:57:15.659Z,99507.81
2023-05-21T14:02:19.693Z,99501.75
2023-05-21T14:07:24.247Z,99511.50
2023-05-21T14:12:35.409Z,99501.75
2023-05-21T14:17:40.401Z,99504.88
2023-05-21T14:22:44.760Z,99506.09
2023-05-21T14:27:46.710Z,99510.25
2023-05-21T14:32:52.792Z,99494.34
2023-05-21T14:37:54.772Z,99503.69
2023-05-21T14:42:56.686Z,99484.13
2023-05-21T14:48:08.448Z,99506.22
2023-05-21T14:53:12.054Z,99510.44
2023-05-21T14:58:15.049Z,99502.38
2023-05-21T15:03:26.419Z,99498.47
2023-05-21T15:08:29.466Z,99503.00
2023-05-21T15:13:31.700Z,99506.25
2023-05-21T15:18:34.223Z,99500.53
2023-05-21T15:23:37.123Z,99502.56
2023-05-21T15:28:39.236Z,99498.81
2023-05-21T15:33:42.031Z,99494.66
2023-05-21T15:38:44.459Z,99493.66
2023-05-21T15:43:46.618Z,99486.69
2023-05-21T15:48:48.631Z,99478.28
2023-05-21T15:53:50.572Z,99481.72
2023-05-21T15:58:52.917Z,99482.50
2023-05-21T16:03:55.262Z,99482.06
2023-05-21T16:08:58.312Z,99481.28
2023-05-21T16:14:00.243Z,99479.88
2023-05-21T16:19:02.238Z,99466.25
2023-05-21T16:24:04.306Z,99475.09
2023-05-21T16:29:06.256Z,99474.72
2023-05-21T16:34:08.255Z,99469.19
2023-05-21T16:39:10.268Z,99474.75
2023-05-21T16:44:12.490Z,99478.06
2023-05-21T16:49:14.436Z,99476.91
2023-05-21T16:54:16.290Z,99473.28
2023-05-21T16:59:18.134Z,99474.34
2023-05-21T17:04:20.073Z,99479.44
2023-05-21T17:09:21.978Z,99476.34
2023-05-21T17:14:33.859Z,99490.88
2023-05-21T17:19:37.449Z,99486.94
2023-05-21T17:24:39.384Z,99488.94
2023-05-21T17:29:41.589Z,99488.09
2023-05-21T17:34:43.942Z,99490.22
2023-05-21T17:39:45.793Z,99489.94
2023-05-21T17:44:47.750Z,99497.06
2023-05-21T17:49:49.631Z,99494.28
2023-05-21T17:54:51.610Z,99496.47
2023-05-21T17:59:55.222Z,99496.13
2023-05-21T18:04:57.247Z,99499.53
2023-05-21T18:09:59.122Z,99503.16
2023-05-21T18:15:02.350Z,99508.19
2023-05-21T18:20:04.862Z,99508.03
2023-05-21T18:25:07.339Z,99504.28
2023-05-21T18:30:09.760Z,99507.41
2023-05-21T18:35:13.636Z,99505.50
2023-05-21T18:40:18.214Z,99512.16
2023-05-21T18:45:20.084Z,99514.78
2023-05-21T18:50:22.025Z,99510.16
2023-05-21T18:55:24.021Z,99511.13
2023-05-21T19:00:26.046Z,99514.97
2023-05-21T19:05:28.297Z,99519.16
2023-05-21T19:10:30.840Z,99516.81
2023-05-21T19:15:33.014Z,99515.41
2023-05-21T19:20:36.862Z,99517.50
2023-05-21T19:25:39.249Z,99521.22
2023-05-21T19:30:41.163Z,99526.56
2023-05-21T19:35:43.504Z,99531.91
2023-05-21T19:40:45.587Z,99539.56
2023-05-21T19:45:47.582Z,99545.84
2023-05-21T19:50:49.457Z,99547.13
2023-05-21T19:55:51.307Z,99549.44
2023-05-21T20:00:55.948Z,99551.88
2023-05-21T20:05:58.801Z,99550.00
2023-05-21T20:11:00.723Z,99558.78
2023-05-21T20:16:02.617Z,99573.72
2023-05-21T20:21:06.514Z,99569.53
2023-05-21T20:26:08.419Z,99571.28
2023-05-21T20:31:11.330Z,99574.22
2023-05-21T20:36:15.381Z,99586.59
2023-05-21T20:41:17.364Z,99584.34
2023-05-21T20:46:20.099Z,99577.34
2023-05-21T20:51:22.127Z,99577.69
2023-05-21T20:56:40.053Z,99585.03
2023-05-21T21:01:43.766Z,99582.41
2023-05-21T21:06:48.372Z,99583.91
2023-05-21T21:11:50.280Z,99582.72
2023-05-21T21:16:52.142Z,99581.88
2023-05-21T21:21:54.039Z,99587.47
2023-05-21T21:26:55.994Z,99590.41
2023-05-21T21:31:57.928Z,99591.31
2023-05-21T21:36:59.813Z,99585.56
2023-05-21T21:42:01.922Z,99582.16
2023-05-21T21:47:03.869Z,99578.25
2023-05-21T21:52:07.187Z,99568.91
2023-05-21T21:57:09.080Z,99582.59
2023-05-21T22:02:11.034Z,99578.56
2023-05-21T22:07:17.052Z,99581.69
2023-05-21T22:12:19.035Z,99578.19
2023-05-21T22:17:21.507Z,99576.03
2023-05-21T22:22:23.513Z,99577.47
2023-05-21T22:27:25.463Z,99584.31
2023-05-21T22:32:27.309Z,99577.91
2023-05-21T22:37:29.220Z,99581.28
2023-05-21T22:42:31.066Z,99592.44
2023-05-21T22:47:32.969Z,99588.31
2023-05-21T22:52:35.239Z,99580.25
2023-05-21T22:57:37.112Z,99583.22
2023-05-21T23:02:39.095Z,99589.31
2023-05-21T23:07:41.497Z,99589.72
2023-05-21T23:12:43.485Z,99587.50
2023-05-21T23:17:46.005Z,99584.47
2023-05-21T23:22:48.026Z,99591.56
2023-05-21T23:27:49.941Z,99582.81
2023-05-21T23:32:51.920Z,99588.09
2023-05-21T23:37:53.843Z,99593.66
2023-05-21T23:42:55.719Z,99592.56
2023-05-21T23:47:57.622Z,99591.97
2023-05-21T23:52:59.817Z,99588.78
2023-05-21T23:58:01.640Z,99592.38
